Time;durP1;ratioP1;P1;durP2;ratioP2;P2;SDS_P1;SDS_P2;PMS_P1;PMS_P2;Temp;Humidity;BMP_temperature;BMP_pressure;BME280_temperature;BME280_humidity;BME280_pressure;Samples;Min_cycle;Max_cycle;Signal;HPM_P1;HPM_P2
2021/10/23 00:03:44;;;;;;;3.67;0.90;;;;;;;11.11;67.84;100949.25;10296786;28;20138;-64
2021/10/23 00:08:46;;;;;;;2.38;1.00;;;;;;;11.21;68.10;100955.59;10306379;28;20043;-64
2021/10/23 00:13:47;;;;;;;1.02;0.60;;;;;;;11.22;68.31;100970.63;10309514;28;20046;-64
2021/10/23 00:18:49;;;;;;;2.40;0.70;;;;;;;11.25;67.99;100962.41;10302340;28;20050;-64
2021/10/23 00:23:50;;;;;;;5.80;1.42;;;;;;;11.29;67.81;100969.22;10282798;28;20452;-66
2021/10/23 00:28:51;;;;;;;3.15;0.88;;;;;;;11.24;68.44;100971.34;10308522;28;20058;-64
2021/10/23 00:33:53;;;;;;;4.05;1.33;;;;;;;11.22;69.46;100973.28;10281063;28;20050;-64
2021/10/23 00:38:54;;;;;;;5.57;1.27;;;;;;;11.31;69.07;100975.28;10282216;28;20050;-64
2021/10/23 00:43:56;;;;;;;3.17;0.90;;;;;;;11.34;68.98;100970.72;10308355;28;20605;-64
2021/10/23 00:48:58;;;;;;;3.13;0.75;;;;;;;11.33;69.82;100983.19;10309157;28;20070;-64
2021/10/23 00:53:59;;;;;;;5.30;0.90;;;;;;;11.32;68.23;100995.66;10298850;28;20058;-64
2021/10/23 00:59:00;;;;;;;3.47;1.13;;;;;;;11.25;68.65;101004.22;10299014;28;20082;-64
2021/10/23 01:04:02;;;;;;;1.20;0.75;;;;;;;11.30;68.76;101002.94;10303386;28;20073;-65
2021/10/23 01:09:05;;;;;;;4.20;1.00;;;;;;;11.32;68.24;101014.31;10285047;28;20053;-64
2021/10/23 01:14:15;;;;;;;1.95;0.90;;;;;;;11.40;68.39;101018.25;10301640;28;20076;-64
2021/10/23 01:19:17;;;;;;;4.22;1.30;;;;;;;11.35;67.59;101013.25;10309776;28;20059;-64
2021/10/23 01:24:20;;;;;;;2.05;0.80;;;;;;;11.25;68.25;101026.38;10304039;28;20058;-64
2021/10/23 01:29:22;;;;;;;2.50;0.80;;;;;;;11.18;67.39;101022.44;10301707;28;20134;-65
2021/10/23 01:34:25;;;;;;;2.58;1.13;;;;;;;11.06;67.53;101031.28;10305310;28;20558;-64
2021/10/23 01:39:28;;;;;;;2.67;0.68;;;;;;;11.07;68.56;101038.34;10301545;28;20090;-64
2021/10/23 01:44:35;;;;;;;4.43;1.67;;;;;;;11.14;68.13;101037.78;10308673;23;20078;-58
2021/10/23 01:49:37;;;;;;;2.60;0.93;;;;;;;11.16;67.60;101037.69;10310834;28;20474;-58
2021/10/23 01:54:38;;;;;;;4.13;1.08;;;;;;;11.08;68.45;101037.34;10314648;28;20472;-58
2021/10/23 01:59:40;;;;;;;4.35;1.10;;;;;;;11.16;67.93;101037.69;10311269;28;20101;-58
2021/10/23 02:04:41;;;;;;;3.38;1.55;;;;;;;11.09;68.08;101031.09;10303541;28;20050;-58
2021/10/23 02:09:43;;;;;;;3.28;2.20;;;;;;;11.05;68.35;101032.25;10286060;28;20133;-57
2021/10/23 02:14:44;;;;;;;4.57;1.00;;;;;;;11.05;68.71;101030.47;10284402;28;20074;-57
2021/10/23 02:19:45;;;;;;;4.70;1.13;;;;;;;11.09;68.45;101044.41;10303245;28;20504;-58
2021/10/23 02:24:47;;;;;;;4.05;1.20;;;;;;;11.12;68.09;101025.53;10299809;28;20140;-59
2021/10/23 02:29:48;;;;;;;4.95;1.02;;;;;;;11.09;67.67;101041.75;10306395;28;20145;-58
2021/10/23 02:34:50;;;;;;;2.28;0.80;;;;;;;11.03;68.56;101036.84;10303751;28;20081;-58
2021/10/23 02:39:51;;;;;;;2.83;1.20;;;;;;;11.04;68.63;101041.22;10307403;28;20071;-57
2021/10/23 02:44:53;;;;;;;2.83;0.93;;;;;;;11.10;68.88;101033.63;10312837;28;20129;-58
2021/10/23 02:49:54;;;;;;;4.00;1.65;;;;;;;11.08;68.92;101038.22;10311970;28;20066;-57
2021/10/23 02:54:56;;;;;;;3.72;1.13;;;;;;;11.05;69.12;101040.25;10309683;28;20050;-57
2021/10/23 02:59:57;;;;;;;3.75;0.80;;;;;;;11.04;69.31;101030.56;10304500;28;20077;-58
2021/10/23 03:05:02;;;;;;;3.65;1.13;;;;;;;11.02;69.72;101032.47;10302611;28;20121;-58
2021/10/23 03:10:04;;;;;;;5.25;1.50;;;;;;;11.06;69.59;101037.47;10299790;28;20073;-58
2021/10/23 03:15:06;;;;;;;2.90;0.88;;;;;;;11.13;69.21;101037.91;10309549;28;20074;-57
2021/10/23 03:20:08;;;;;;;3.10;1.02;;;;;;;11.09;69.48;101026.63;10303127;28;20082;-58
2021/10/23 03:25:09;;;;;;;3.10;1.17;;;;;;;11.14;69.33;101034.28;10306183;28;20050;-58
2021/10/23 03:30:11;;;;;;;3.88;1.92;;;;;;;11.20;69.32;101033.84;10311089;28;20499;-59
2021/10/23 03:35:12;;;;;;;3.00;0.90;;;;;;;11.14;69.17;101037.78;10305829;28;20165;-57
2021/10/23 03:40:14;;;;;;;1.65;0.90;;;;;;;11.17;68.76;101038.53;10310118;28;20081;-59
2021/10/23 03:45:15;;;;;;;3.38;1.67;;;;;;;11.16;69.61;101034.19;10306010;28;20089;-58
2021/10/23 03:50:16;;;;;;;5.00;1.45;;;;;;;11.25;69.68;101039.69;10302789;28;20084;-59
2021/10/23 03:55:18;;;;;;;2.63;1.38;;;;;;;11.26;69.34;101029.88;10313494;28;20066;-58
2021/10/23 04:00:19;;;;;;;4.63;1.77;;;;;;;11.32;69.69;101040.97;10301970;28;20073;-58
2021/10/23 04:05:21;;;;;;;3.55;3.22;;;;;;;11.31;69.59;101049.06;10284091;28;20070;-57
2021/10/23 04:10:22;;;;;;;2.97;1.40;;;;;;;11.33;69.83;101065.81;10294803;28;20076;-57
2021/10/23 04:15:23;;;;;;;3.97;1.58;;;;;;;11.26;69.04;101073.38;10304883;28;20153;-58
2021/10/23 04:20:25;;;;;;;4.55;2.08;;;;;;;11.25;70.46;101078.84;10291676;28;20133;-57
2021/10/23 04:25:27;;;;;;;2.25;1.00;;;;;;;11.27;70.41;101083.09;10299784;28;20500;-58
2021/10/23 04:30:28;;;;;;;3.40;1.17;;;;;;;11.04;70.94;101087.34;10296634;28;20043;-58
2021/10/23 04:35:29;;;;;;;4.20;1.60;;;;;;;11.06;70.14;101087.25;10278887;28;20138;-57
2021/10/23 04:40:31;;;;;;;2.33;1.00;;;;;;;10.82;71.89;101074.66;10268560;28;20492;-58
2021/10/23 04:45:32;;;;;;;3.95;1.45;;;;;;;10.76;71.57;101089.25;10260801;28;20046;-58
2021/10/23 04:50:34;;;;;;;3.47;1.85;;;;;;;10.68;71.71;101099.56;10267291;28;20129;-58
2021/10/23 04:55:35;;;;;;;5.10;2.30;;;;;;;10.66;72.97;101114.81;10262575;28;20074;-58
2021/10/23 05:00:37;;;;;;;3.92;2.03;;;;;;;10.72;72.90;101116.19;10267492;28;20307;-57
2021/10/23 05:05:38;;;;;;;2.88;1.60;;;;;;;10.64;72.50;101126.50;10271131;28;20059;-58
2021/10/23 05:10:39;;;;;;;4.60;2.00;;;;;;;10.56;72.80;101130.53;10258703;28;20098;-58
2021/10/23 05:15:41;;;;;;;3.85;1.70;;;;;;;10.23;73.80;101126.44;10264537;28;20051;-58
2021/10/23 05:20:42;;;;;;;4.72;1.70;;;;;;;9.95;75.13;101129.19;10253399;28;20086;-58
2021/10/23 05:25:44;;;;;;;3.35;1.40;;;;;;;10.15;74.56;101110.13;10263379;28;20075;-57
2021/10/23 05:30:45;;;;;;;3.38;1.52;;;;;;;10.27;74.11;101108.47;10275971;28;20050;-58
2021/10/23 05:35:47;;;;;;;5.07;2.08;;;;;;;10.35;73.67;101086.72;10272111;28;20046;-57
2021/10/23 05:40:48;;;;;;;3.17;1.50;;;;;;;10.23;73.25;101093.66;10253962;28;20098;-57
2021/10/23 05:45:50;;;;;;;3.47;1.98;;;;;;;10.06;74.81;101084.13;10265525;28;20136;-59
2021/10/23 05:50:53;;;;;;;5.20;2.20;;;;;;;9.90;74.79;101093.09;10290585;28;20058;-58
2021/10/23 05:55:54;;;;;;;6.35;2.50;;;;;;;9.85;75.11;101105.84;10293518;28;20140;-58
2021/10/23 06:01:05;;;;;;;5.43;2.20;;;;;;;9.87;76.03;101113.72;10287677;28;20050;-58
2021/10/23 06:06:08;;;;;;;4.30;2.03;;;;;;;9.98;75.75;101135.13;10272174;28;20055;-59
2021/10/23 06:11:10;;;;;;;4.07;1.80;;;;;;;10.08;75.30;101152.22;10285262;28;20121;-59
2021/10/23 06:16:11;;;;;;;5.25;2.03;;;;;;;10.13;75.03;101157.25;10289841;28;20057;-58
2021/10/23 06:21:13;;;;;;;2.33;2.13;;;;;;;10.31;75.01;101173.00;10287042;28;20624;-58
2021/10/23 06:26:14;;;;;;;5.45;2.63;;;;;;;10.47;74.74;101179.06;10268624;28;20129;-59
2021/10/23 06:31:16;;;;;;;6.18;3.22;;;;;;;10.53;74.38;101183.13;10277396;28;20042;-57
2021/10/23 06:36:17;;;;;;;3.70;2.88;;;;;;;10.43;74.08;101193.50;10282319;28;20100;-57
2021/10/23 06:41:18;;;;;;;7.28;3.17;;;;;;;10.32;74.82;101196.00;10281454;28;20850;-58
2021/10/23 06:46:21;;;;;;;5.45;2.72;;;;;;;10.19;73.93;101199.44;10281566;28;20101;-57
2021/10/23 06:51:23;;;;;;;6.53;3.35;;;;;;;10.27;75.61;101207.78;10266799;28;20046;-58
2021/10/23 06:56:24;;;;;;;5.70;2.85;;;;;;;10.37;74.74;101199.22;10285347;28;20113;-58
2021/10/23 07:01:26;;;;;;;4.45;3.00;;;;;;;10.34;73.89;101202.09;10283300;28;20133;-59
2021/10/23 07:06:28;;;;;;;4.93;3.15;;;;;;;10.42;74.49;101208.63;10282190;28;20077;-58
2021/10/23 07:11:29;;;;;;;6.80;3.28;;;;;;;10.44;74.40;101222.69;10276464;28;20469;-57
2021/10/23 07:16:31;;;;;;;5.45;3.42;;;;;;;10.34;74.59;101220.72;10284142;28;20141;-58
2021/10/23 07:21:32;;;;;;;5.22;3.25;;;;;;;10.46;74.67;101240.38;10283869;28;20051;-58
2021/10/23 07:26:35;;;;;;;5.13;3.13;;;;;;;10.50;74.54;101250.72;10276385;28;20066;-59
2021/10/23 07:31:37;;;;;;;5.28;3.60;;;;;;;10.55;73.82;101253.97;10277840;28;20502;-57
2021/10/23 07:36:38;;;;;;;5.40;3.20;;;;;;;10.58;73.87;101253.75;10276921;28;20065;-57
2021/10/23 07:41:40;;;;;;;5.53;3.95;;;;;;;10.65;73.46;101262.19;10279371;28;20553;-58
2021/10/23 07:46:41;;;;;;;5.13;3.60;;;;;;;10.71;72.73;101274.25;10278062;28;20129;-58
2021/10/23 07:51:42;;;;;;;5.10;3.72;;;;;;;10.79;73.60;101290.59;10278347;28;20050;-58
2021/10/23 07:56:44;;;;;;;6.57;2.90;;;;;;;10.99;72.87;101288.44;10278486;28;20133;-59
2021/10/23 08:01:46;;;;;;;7.50;3.90;;;;;;;11.09;72.60;101287.75;10281178;28;20054;-57
2021/10/23 08:06:47;;;;;;;5.28;3.55;;;;;;;11.22;71.04;101287.75;10277293;28;20053;-58
2021/10/23 08:11:49;;;;;;;4.90;3.00;;;;;;;11.29;71.60;101289.06;10277025;28;20057;-57
2021/10/23 08:16:51;;;;;;;5.40;2.95;;;;;;;11.39;71.19;101296.44;10277250;28;20082;-61
2021/10/23 08:21:53;;;;;;;8.38;3.50;;;;;;;11.64;70.18;101317.81;10278845;28;20055;-57
2021/10/23 08:26:54;;;;;;;5.78;3.78;;;;;;;11.88;69.39;101326.94;10272682;28;20137;-58
2021/10/23 08:31:55;;;;;;;5.63;3.40;;;;;;;12.08;69.29;101320.22;10280044;28;20068;-58
2021/10/23 08:36:57;;;;;;;4.78;3.58;;;;;;;12.24;68.40;101320.88;10271772;28;20126;-58
2021/10/23 08:41:59;;;;;;;4.30;2.70;;;;;;;12.27;66.83;101322.47;10278955;28;20057;-57
2021/10/23 08:47:01;;;;;;;6.43;3.00;;;;;;;12.59;65.87;101327.31;10268995;28;20121;-58
2021/10/23 08:52:03;;;;;;;8.23;4.47;;;;;;;12.42;65.80;101321.38;10273855;28;20077;-60
2021/10/23 08:57:04;;;;;;;7.45;3.55;;;;;;;12.20;66.18;101325.56;10272750;28;20145;-57
2021/10/23 09:02:07;;;;;;;5.78;4.10;;;;;;;12.22;66.26;101335.25;10279113;28;20066;-58
2021/10/23 09:07:12;;;;;;;7.38;3.70;;;;;;;12.29;66.39;101341.88;10273480;28;20384;-58
2021/10/23 09:12:28;;;;;;;8.45;3.60;;;;;;;12.37;66.14;101345.72;10276012;28;20070;-57
2021/10/23 09:17:32;;;;;;;5.45;3.80;;;;;;;12.75;65.76;101348.44;10274192;28;20133;-58
2021/10/23 09:22:38;;;;;;;6.78;3.85;;;;;;;12.99;63.92;101348.47;10272673;28;20139;-60
2021/10/23 09:28:01;;;;;;;7.45;3.65;;;;;;;13.35;63.99;101355.63;10269891;28;20611;-57
2021/10/23 09:33:18;;;;;;;7.30;3.40;;;;;;;13.47;62.44;101358.34;10267449;28;20124;-57
2021/10/23 09:38:22;;;;;;;4.18;2.60;;;;;;;13.56;60.72;101360.34;10267085;28;20116;-57
2021/10/23 09:43:28;;;;;;;;;;;;;;;13.65;61.01;101364.13;10266742;28;20051;-59
2021/10/23 09:48:45;;;;;;;;;;;;;;;13.74;61.74;101366.94;10262206;28;20013;-57
2021/10/23 09:53:49;;;;;;;5.22;3.00;;;;;;;14.07;60.78;101359.97;10254096;28;20004;-58
2021/10/23 09:59:08;;;;;;;3.63;2.53;;;;;;;14.24;58.84;101360.47;10264599;28;20077;-58
2021/10/23 10:04:12;;;;;;;5.35;3.95;;;;;;;15.51;56.83;101361.88;10267569;28;20129;-59
2021/10/23 10:09:19;;;;;;;3.97;2.60;;;;;;;16.75;51.42;101352.13;10269005;28;20054;-59
2021/10/23 10:14:24;;;;;;;6.30;2.92;;;;;;;16.02;51.99;101347.72;10255562;28;20066;-58
2021/10/23 10:19:26;;;;;;;5.28;2.05;;;;;;;15.78;53.16;101369.47;10274371;28;20054;-59
2021/10/23 10:24:29;;;;;;;4.93;2.05;;;;;;;15.60;54.21;101381.72;10280755;28;20432;-59
2021/10/23 10:29:52;;;;;;;3.72;2.33;;;;;;;15.17;54.41;101373.56;10262231;28;20154;-59
2021/10/23 10:35:30;;;;;;;5.25;2.00;;;;;;;15.06;56.27;101380.78;10280714;28;20151;-58
2021/10/23 10:45:41;;;;;;;4.88;2.05;;;;;;;14.92;55.35;101382.78;10285153;28;20038;-58
2021/10/23 10:50:53;;;;;;;4.47;2.45;;;;;;;14.58;56.93;101380.09;10265702;28;20232;-58
2021/10/23 10:56:06;;;;;;;5.07;1.70;;;;;;;14.24;56.82;101366.69;10254335;28;20118;-58
2021/10/23 11:01:09;;;;;;;5.00;1.83;;;;;;;14.22;57.98;101387.38;10274308;28;20583;-57
2021/10/23 11:06:38;;;;;;;2.85;1.23;;;;;;;14.36;57.58;101380.09;10276835;28;20079;-60
2021/10/23 11:16:55;;;;;;;4.80;2.65;;;;;;;14.38;58.17;101372.78;10277505;28;20074;-57
2021/10/23 11:22:23;;;;;;;4.22;1.63;;;;;;;14.52;58.37;101372.56;10278635;28;20050;-57
2021/10/23 11:27:35;;;;;;;3.20;1.85;;;;;;;14.42;57.97;101369.72;10264701;28;20129;-58
2021/10/23 11:33:04;;;;;;;4.65;1.95;;;;;;;14.00;57.92;101373.94;10271117;28;20200;-59
2021/10/23 11:38:26;;;;;;;7.43;1.75;;;;;;;13.72;58.95;101370.69;10263051;28;20526;-58
2021/10/23 11:43:29;;;;;;;4.38;1.83;;;;;;;13.64;59.35;101373.97;10272110;28;20043;-58
2021/10/23 11:48:30;;;;;;;4.03;1.67;;;;;;;13.68;58.36;101369.25;10269278;28;20053;-58
2021/10/23 11:53:33;;;;;;;4.00;2.00;;;;;;;13.68;59.65;101375.44;10272792;28;20393;-58
2021/10/23 11:58:39;;;;;;;4.47;1.50;;;;;;;13.72;58.60;101371.56;10272993;28;20141;-58
2021/10/23 12:03:46;;;;;;;3.45;1.88;;;;;;;13.76;58.08;101374.84;10275376;28;20045;-58
2021/10/23 12:08:51;;;;;;;3.65;1.90;;;;;;;13.86;57.26;101380.38;10253001;28;20062;-57
2021/10/23 12:14:05;;;;;;;5.32;2.30;;;;;;;13.94;58.44;101376.13;10274028;28;20070;-58
2021/10/23 12:19:40;;;;;;;4.88;1.90;;;;;;;14.10;57.42;101378.47;10271286;28;20092;-58
2021/10/23 12:24:50;;;;;;;7.32;2.42;;;;;;;13.95;56.78;101374.31;10261897;28;20137;-58
2021/10/23 12:30:04;;;;;;;4.47;2.08;;;;;;;14.40;56.13;101382.41;10270813;28;20061;-58
2021/10/23 12:35:32;;;;;;;5.18;2.10;;;;;;;14.84;54.80;101372.66;10267378;28;20539;-58
2021/10/23 12:40:39;;;;;;;5.30;2.33;;;;;;;15.17;54.19;101378.94;10247920;28;20043;-58
2021/10/23 12:45:43;;;;;;;7.25;1.92;;;;;;;17.35;48.95;101373.63;10256944;28;20074;-58
2021/10/23 12:50:45;;;;;;;;;;;;;;;18.19;46.56;101370.34;10255550;28;20046;-58
2021/10/23 12:55:47;;;;;;;6.47;1.98;;;;;;;18.14;46.59;101363.69;10257701;28;20018;-58
2021/10/23 13:00:48;;;;;;;4.18;1.85;;;;;;;18.12;45.21;101357.56;10263615;28;20046;-58
2021/10/23 13:05:50;;;;;;;4.28;1.45;;;;;;;18.38;45.11;101347.00;10262180;28;20057;-59
2021/10/23 13:10:51;;;;;;;3.67;1.38;;;;;;;19.39;41.93;101357.78;10265540;28;20503;-59
2021/10/23 13:15:53;;;;;;;4.72;1.48;;;;;;;20.75;38.37;101341.13;10265608;28;20058;-58
2021/10/23 13:20:57;;;;;;;6.10;2.53;;;;;;;19.06;40.10;101349.34;10259468;28;20043;-59
2021/10/23 13:25:59;;;;;;;5.80;3.03;;;;;;;21.98;35.43;101331.41;10263627;28;20070;-59
2021/10/23 13:31:01;;;;;;;11.27;8.48;;;;;;;20.23;36.03;101333.09;10262701;28;20173;-59
2021/10/23 13:36:02;;;;;;;6.03;1.88;;;;;;;26.20;29.45;101328.59;10263458;28;20074;-60
2021/10/23 13:41:05;;;;;;;4.65;1.10;;;;;;;22.55;33.58;101320.44;10264556;28;20059;-59
2021/10/23 13:46:06;;;;;;;3.93;1.20;;;;;;;19.52;37.86;101345.75;10278528;28;20129;-60
2021/10/23 13:51:08;;;;;;;3.13;1.13;;;;;;;17.90;42.21;101343.47;10276764;28;20313;-59
2021/10/23 13:56:10;;;;;;;6.75;1.65;;;;;;;17.08;44.80;101337.53;10274905;28;20500;-59
2021/10/23 14:01:12;;;;;;;3.50;1.00;;;;;;;15.95;44.50;101356.44;10261050;28;20415;-59
2021/10/23 14:06:13;;;;;;;2.30;0.95;;;;;;;15.75;47.01;101353.59;10276105;28;20046;-59
2021/10/23 14:11:15;;;;;;;3.80;1.10;;;;;;;15.52;46.71;101348.34;10278555;28;20139;-59
2021/10/23 14:16:16;;;;;;;4.15;1.23;;;;;;;14.89;47.01;101364.25;10272717;28;20042;-60
2021/10/23 14:21:18;;;;;;;3.17;1.05;;;;;;;14.72;48.74;101354.06;10277686;28;20111;-58
2021/10/23 14:26:19;;;;;;;2.85;1.10;;;;;;;14.63;48.00;101352.97;10280691;28;20054;-59
2021/10/23 14:31:21;;;;;;;5.90;1.17;;;;;;;14.72;49.87;101352.22;10283371;28;20842;-59
2021/10/23 14:36:23;;;;;;;4.22;1.25;;;;;;;14.79;48.91;101349.91;10270678;23;20127;-63
2021/10/23 14:41:24;;;;;;;4.25;1.33;;;;;;;14.89;48.85;101358.88;10242024;28;20126;-63
2021/10/23 14:46:26;;;;;;;2.85;1.40;;;;;;;14.79;48.73;101348.06;10242107;28;20078;-63
2021/10/23 14:51:27;;;;;;;6.47;1.33;;;;;;;14.87;50.14;101357.31;10245422;28;20772;-64
2021/10/23 14:56:29;;;;;;;3.42;0.98;;;;;;;14.87;50.52;101351.97;10226347;28;20066;-66
2021/10/23 15:01:30;;;;;;;2.53;1.50;;;;;;;14.79;49.90;101352.59;10243627;28;20126;-64
2021/10/23 15:06:32;;;;;;;6.35;1.90;;;;;;;14.69;51.28;101359.66;10242454;28;20130;-63
2021/10/23 15:11:33;;;;;;;4.43;2.35;;;;;;;14.51;53.80;101357.44;10241632;28;20141;-63
2021/10/23 15:16:34;;;;;;;4.90;2.30;;;;;;;14.35;54.17;101359.63;10241062;28;20133;-64
2021/10/23 15:21:36;;;;;;;5.18;2.22;;;;;;;14.21;55.88;101363.41;10243049;28;20075;-63
2021/10/23 15:26:38;;;;;;;4.28;2.25;;;;;;;14.06;55.70;101366.28;10239789;28;20059;-63
2021/10/23 15:31:39;;;;;;;5.82;2.55;;;;;;;13.97;56.54;101365.16;10240056;28;20185;-64
2021/10/23 15:36:41;;;;;;;5.25;3.20;;;;;;;13.84;56.52;101358.22;10238323;28;20050;-64
2021/10/23 15:41:52;;;;;;;5.88;2.65;;;;;;;13.81;56.76;101366.47;10221284;28;20075;-63
2021/10/23 15:46:53;;;;;;;5.50;3.45;;;;;;;13.72;57.13;101379.59;10243918;28;20105;-64
2021/10/23 15:51:55;;;;;;;6.47;3.38;;;;;;;13.70;57.38;101364.63;10237972;28;20718;-62
2021/10/23 15:56:56;;;;;;;5.97;3.78;;;;;;;13.60;57.74;101369.81;10240349;28;20167;-63
2021/10/23 16:01:58;;;;;;;9.27;3.72;;;;;;;13.51;58.31;101379.41;10236311;28;20086;-62
2021/10/23 16:07:01;;;;;;;6.55;4.35;;;;;;;13.46;58.63;101392.25;10236863;28;20051;-62
2021/10/23 16:12:02;;;;;;;9.48;3.63;;;;;;;13.40;58.93;101398.91;10236072;28;20055;-63
2021/10/23 16:17:04;;;;;;;5.28;3.38;;;;;;;13.37;59.65;101398.28;10236501;28;20099;-63
2021/10/23 16:22:05;;;;;;;11.60;6.30;;;;;;;13.25;58.92;101394.66;10238762;28;20057;-63
2021/10/23 16:27:07;;;;;;;7.22;5.28;;;;;;;13.14;59.16;101402.63;10241085;28;20043;-63
2021/10/23 16:32:08;;;;;;;6.45;4.13;;;;;;;13.07;59.82;101403.06;10239244;28;20519;-63
2021/10/23 16:37:10;;;;;;;6.78;4.28;;;;;;;13.05;60.87;101405.00;10235617;28;20198;-64
2021/10/23 16:42:12;;;;;;;11.05;5.97;;;;;;;13.05;61.13;101405.00;10239454;28;20059;-64
2021/10/23 16:47:13;;;;;;;6.93;6.10;;;;;;;12.99;59.66;101410.78;10237762;28;20086;-63
2021/10/23 16:52:15;;;;;;;8.07;6.07;;;;;;;12.85;60.26;101408.25;10241433;28;20105;-64
2021/10/23 16:57:16;;;;;;;13.13;8.77;;;;;;;12.81;61.97;101412.13;10233421;28;20051;-64
2021/10/23 17:02:18;;;;;;;11.23;7.57;;;;;;;12.75;62.03;101402.72;10215727;28;20118;-64
2021/10/23 17:07:19;;;;;;;9.02;5.82;;;;;;;12.78;62.71;101409.69;10236126;28;20141;-65
2021/10/23 17:12:21;;;;;;;6.13;5.03;;;;;;;12.74;62.79;101406.34;10235526;28;20176;-64
2021/10/23 17:17:22;;;;;;;6.38;4.88;;;;;;;12.72;63.41;101417.16;10237512;28;20531;-63
2021/10/23 17:22:23;;;;;;;8.18;5.22;;;;;;;12.66;63.34;101408.72;10235347;28;20086;-64
2021/10/23 17:27:25;;;;;;;7.47;5.38;;;;;;;12.62;63.53;101418.75;10232874;28;20062;-63
2021/10/23 17:32:27;;;;;;;10.65;9.05;;;;;;;12.56;63.45;101419.19;10237033;28;20141;-64
2021/10/23 17:37:28;;;;;;;13.20;9.35;;;;;;;12.46;64.43;101418.13;10241632;28;20079;-64
2021/10/23 17:42:29;;;;;;;13.43;8.68;;;;;;;12.34;63.00;101425.16;10246801;28;20046;-64
2021/10/23 17:47:31;;;;;;;7.65;5.80;;;;;;;12.28;63.31;101431.81;10249038;28;20049;-65
2021/10/23 17:52:34;;;;;;;9.23;5.47;;;;;;;12.24;63.64;101421.47;10244764;28;20135;-65
2021/10/23 17:57:36;;;;;;;7.72;6.28;;;;;;;12.18;63.43;101422.72;10241361;28;20686;-65
2021/10/23 18:02:40;;;;;;;9.95;6.72;;;;;;;12.08;64.53;101418.97;10233023;28;20083;-65
2021/10/23 18:07:44;;;;;;;11.32;7.20;;;;;;;12.13;64.76;101422.16;10256481;28;20082;-66
2021/10/23 18:12:45;;;;;;;11.35;7.28;;;;;;;12.12;63.89;101420.47;10256634;28;20046;-65
2021/10/23 18:17:58;;;;;;;9.85;6.38;;;;;;;12.03;63.82;101421.97;10269585;28;20081;-65
2021/10/23 18:22:59;;;;;;;8.73;6.47;;;;;;;12.04;64.84;101421.00;10256767;28;20047;-66
2021/10/23 18:28:03;;;;;;;8.25;6.82;;;;;;;11.95;64.48;101416.28;10251263;28;20205;-66
2021/10/23 18:33:04;;;;;;;7.97;6.25;;;;;;;11.82;65.10;101414.41;10252273;28;20055;-65
2021/10/23 18:38:06;;;;;;;9.07;6.75;;;;;;;11.75;64.24;101412.25;10251313;28;20042;-65
2021/10/23 18:43:08;;;;;;;7.60;6.40;;;;;;;11.76;65.23;101413.97;10232583;28;20462;-66
2021/10/23 18:48:10;;;;;;;11.25;8.15;;;;;;;11.80;65.52;101410.13;10237916;28;20538;-65
2021/10/23 18:53:11;;;;;;;9.38;7.53;;;;;;;11.77;65.23;101405.88;10270541;28;21771;-64
2021/10/23 18:58:13;;;;;;;29.60;22.83;;;;;;;11.78;65.64;101409.38;10253044;28;20054;-66
2021/10/23 19:03:14;;;;;;;23.75;17.33;;;;;;;11.75;66.33;101398.94;10248372;28;20058;-66
2021/10/23 19:08:17;;;;;;;13.07;9.43;;;;;;;11.81;66.42;101406.50;10247990;28;20058;-66
2021/10/23 19:13:22;;;;;;;12.38;9.10;;;;;;;11.72;65.62;101407.97;10233529;28;20142;-67
2021/10/23 19:18:23;;;;;;;10.38;7.95;;;;;;;11.77;66.30;101400.53;10244842;28;20158;-67
2021/10/23 19:23:25;;;;;;;11.70;7.80;;;;;;;11.69;66.98;101397.50;10257490;28;20070;-65
2021/10/23 19:28:26;;;;;;;8.52;7.50;;;;;;;11.66;67.12;101409.25;10256261;28;20043;-65
2021/10/23 19:33:28;;;;;;;8.68;7.78;;;;;;;11.59;66.66;101418.63;10235964;28;20078;-65
2021/10/23 19:38:29;;;;;;;11.13;8.30;;;;;;;11.55;67.04;101422.44;10242324;28;20047;-65
2021/10/23 19:43:31;;;;;;;15.60;9.18;;;;;;;11.53;68.05;101428.81;10243916;28;20074;-63
2021/10/23 19:48:34;;;;;;;11.18;8.13;;;;;;;11.52;67.86;101430.66;10230572;28;20055;-64
2021/10/23 19:53:36;;;;;;;10.20;8.63;;;;;;;11.41;68.71;101419.81;10244034;28;20506;-65
2021/10/23 19:58:38;;;;;;;11.07;8.30;;;;;;;11.35;68.68;101420.22;10226482;28;20051;-63
2021/10/23 20:03:40;;;;;;;10.95;7.35;;;;;;;11.25;68.90;101418.16;10227404;28;20078;-64
2021/10/23 20:08:41;;;;;;;9.25;7.22;;;;;;;11.22;69.80;101431.69;10245793;28;20454;-63
2021/10/23 20:13:42;;;;;;;10.70;8.38;;;;;;;11.13;69.87;101427.78;10241092;28;20082;-64
2021/10/23 20:18:45;;;;;;;10.05;7.30;;;;;;;11.10;70.19;101435.16;10236313;28;20162;-63
2021/10/23 20:23:46;;;;;;;10.40;8.65;;;;;;;11.02;70.02;101440.97;10241803;28;20150;-64
2021/10/23 20:28:49;;;;;;;9.90;8.50;;;;;;;10.96;70.37;101436.88;10248989;28;20158;-63
2021/10/23 20:33:50;;;;;;;11.32;8.45;;;;;;;10.85;70.92;101444.69;10246562;28;20141;-63
2021/10/23 20:38:52;;;;;;;12.40;9.93;;;;;;;10.75;70.99;101444.41;10239867;28;20051;-70
2021/10/23 20:43:55;;;;;;;9.70;8.57;;;;;;;10.72;71.56;101449.06;10243373;28;20054;-64
2021/10/23 20:48:57;;;;;;;13.80;9.55;;;;;;;10.64;72.56;101441.53;10240154;28;20197;-64
2021/10/23 20:53:58;;;;;;;13.73;9.27;;;;;;;10.61;71.59;101453.25;10222970;28;20059;-64
2021/10/23 20:59:00;;;;;;;8.90;7.93;;;;;;;10.52;72.03;101452.94;10232387;28;20900;-63
2021/10/23 21:04:05;;;;;;;10.63;9.00;;;;;;;10.41;71.70;101448.28;10220423;23;20067;-58
2021/10/23 21:09:07;;;;;;;9.73;8.55;;;;;;;10.35;72.05;101452.16;10219346;28;20208;-57
2021/10/23 21:14:09;;;;;;;9.45;8.45;;;;;;;10.31;72.70;101449.75;10219502;28;20051;-57
2021/10/23 21:19:10;;;;;;;13.60;9.23;;;;;;;10.18;73.24;101449.66;10180993;28;20135;-57
2021/10/23 21:24:12;;;;;;;11.45;9.32;;;;;;;10.17;72.42;101456.75;10185588;28;20134;-58
2021/10/23 21:29:13;;;;;;;9.00;8.13;;;;;;;10.12;73.00;101445.56;10183802;28;20477;-58
2021/10/23 21:34:15;;;;;;;11.57;8.48;;;;;;;10.04;72.87;101450.47;10189825;28;20067;-58
2021/10/23 21:39:17;;;;;;;10.23;7.78;;;;;;;10.00;72.95;101452.44;10180300;28;20055;-57
2021/10/23 21:44:18;;;;;;;10.20;7.75;;;;;;;9.94;72.14;101451.94;10185596;28;20142;-58
2021/10/23 21:49:20;;;;;;;9.05;8.10;;;;;;;9.85;71.93;101443.56;10178793;28;21219;-59
2021/10/23 21:54:21;;;;;;;9.63;8.30;;;;;;;9.85;72.69;101448.88;10175296;28;20087;-59
2021/10/23 21:59:23;;;;;;;10.23;8.27;;;;;;;9.79;71.86;101454.56;10178100;28;20482;-59
2021/10/23 22:04:24;;;;;;;9.25;8.05;;;;;;;9.74;71.83;101445.97;10175203;28;20067;-58
2021/10/23 22:09:27;;;;;;;10.02;8.75;;;;;;;9.62;72.96;101441.38;10182153;28;20067;-57
2021/10/23 22:14:28;;;;;;;10.20;9.20;;;;;;;9.50;71.91;101438.50;10195473;28;20071;-58
2021/10/23 22:19:31;;;;;;;9.02;7.53;;;;;;;9.46;72.23;101434.28;10186532;28;20099;-58
2021/10/23 22:24:35;;;;;;;8.15;7.45;;;;;;;9.44;72.21;101436.16;10189322;28;20151;-58
2021/10/23 22:29:36;;;;;;;7.50;6.80;;;;;;;9.34;71.70;101433.19;10194994;28;20513;-58
2021/10/23 22:34:37;;;;;;;11.57;8.48;;;;;;;9.30;71.90;101436.94;10194384;28;20796;-57
2021/10/23 22:39:39;;;;;;;12.65;10.63;;;;;;;9.24;72.10;101444.44;10189288;28;20641;-59
2021/10/23 22:44:40;;;;;;;11.73;10.52;;;;;;;9.17;72.22;101443.88;10187848;28;20496;-59
2021/10/23 22:49:42;;;;;;;11.65;10.48;;;;;;;9.09;72.71;101448.78;10189579;28;20528;-58
2021/10/23 22:54:43;;;;;;;12.05;9.98;;;;;;;9.03;72.43;101445.50;10190940;28;20114;-60
2021/10/23 22:59:44;;;;;;;10.20;7.72;;;;;;;8.96;72.35;101441.50;10191799;28;20075;-59
2021/10/23 23:04:46;;;;;;;8.30;7.47;;;;;;;8.89;73.00;101436.59;10187600;28;20090;-59
2021/10/23 23:09:47;;;;;;;7.80;6.43;;;;;;;8.89;72.27;101432.16;10190528;28;20480;-59
2021/10/23 23:14:48;;;;;;;8.98;7.18;;;;;;;8.82;72.77;101439.56;10195113;28;20406;-58
2021/10/23 23:19:50;;;;;;;10.48;6.53;;;;;;;8.75;72.54;101443.53;10184672;28;20508;-58
2021/10/23 23:24:51;;;;;;;9.10;6.90;;;;;;;8.71;73.56;101436.66;10191133;28;20091;-59